Time;durP1;ratioP1;P1;durP2;ratioP2;P2;SDS_P1;SDS_P2;PMS_P1;PMS_P2;Temp;Humidity;BMP_temperature;BMP_pressure;BME280_temperature;BME280_humidity;BME280_pressure;Samples;Min_cycle;Max_cycle;Signal;HPM_P1;HPM_P2
2020/12/17 00:02:02;;;;;;;40.22;26.70;;;;;;;8.11;68.62;100621.69;5078408;28;20028;-88
2020/12/17 00:04:28;;;;;;;44.30;26.00;;;;;;;8.11;68.21;100629.56;5079260;28;20039;-88
2020/12/17 00:06:54;;;;;;;43.42;27.95;;;;;;;8.10;68.67;100630.53;5097147;28;20355;-89
2020/12/17 00:09:21;;;;;;;44.58;27.20;;;;;;;8.10;68.26;100619.19;5078917;28;20024;-77
2020/12/17 00:11:46;;;;;;;43.90;28.52;;;;;;;8.09;68.32;100622.78;5109430;28;20050;-78
2020/12/17 00:14:12;;;;;;;46.88;28.70;;;;;;;8.05;69.01;100632.75;5099843;28;20439;-77
2020/12/17 00:16:38;;;;;;;45.95;26.67;;;;;;;8.04;69.19;100620.56;5079296;28;20028;-76
2020/12/17 00:19:04;;;;;;;42.67;25.88;;;;;;;8.02;68.79;100633.00;5096742;28;20028;-77
2020/12/17 00:21:30;;;;;;;40.90;25.95;;;;;;;7.93;68.69;100608.34;5078566;28;20429;-77
2020/12/17 00:23:56;;;;;;;42.15;24.48;;;;;;;7.68;68.85;100577.31;5096800;28;20113;-76
2020/12/17 00:26:25;;;;;;;40.58;26.77;;;;;;;7.59;68.65;100557.91;5096587;28;20102;-76
2020/12/17 00:28:51;;;;;;;39.47;26.23;;;;;;;7.96;69.28;100630.94;5078759;28;20020;-77
2020/12/17 00:31:17;;;;;;;38.92;24.30;;;;;;;7.95;69.31;100631.88;5096264;28;20449;-77
2020/12/17 00:33:42;;;;;;;39.30;23.63;;;;;;;7.55;68.76;100571.44;5096443;28;20101;-77
2020/12/17 00:36:07;;;;;;;39.33;24.08;;;;;;;7.95;69.42;100631.88;5096284;28;20107;-77
2020/12/17 00:38:33;;;;;;;40.45;23.65;;;;;;;7.77;69.29;100591.44;5096252;28;20398;-77
2020/12/17 00:40:58;;;;;;;38.42;24.85;;;;;;;7.69;68.43;100570.25;5078458;28;20032;-76
2020/12/17 00:43:24;;;;;;;34.25;21.15;;;;;;;7.96;68.36;100628.28;5096163;28;20398;-76
2020/12/17 00:45:49;;;;;;;34.80;21.40;;;;;;;7.93;68.32;100618.88;5096353;28;20066;-76
2020/12/17 00:48:14;;;;;;;32.45;21.10;;;;;;;7.62;68.60;100577.84;5078140;28;20035;-76
2020/12/17 00:50:40;;;;;;;29.55;18.35;;;;;;;7.97;68.99;100624.69;5096153;28;20111;-77
2020/12/17 00:53:05;;;;;;;26.90;16.58;;;;;;;7.33;68.84;100526.00;5095858;28;20024;-76
2020/12/17 00:55:30;;;;;;;25.98;15.80;;;;;;;7.14;68.21;100477.81;5095938;28;20040;-77
2020/12/17 00:57:56;;;;;;;24.58;15.07;;;;;;;7.69;68.08;100565.00;5095899;28;20030;-76
2020/12/17 01:00:21;;;;;;;27.50;17.48;;;;;;;7.52;68.04;100546.28;5095821;28;20035;-77
2020/12/17 01:02:47;;;;;;;25.20;15.52;;;;;;;7.96;67.93;100617.78;5095881;28;20039;-76
2020/12/17 01:05:12;;;;;;;22.23;13.35;;;;;;;7.97;67.95;100622.06;5095817;28;20084;-77
2020/12/17 01:07:37;;;;;;;22.70;14.30;;;;;;;7.52;67.94;100567.28;5095832;28;20028;-77
2020/12/17 01:10:04;;;;;;;15.45;10.02;;;;;;;7.90;67.82;100613.06;5095710;28;20024;-77
2020/12/17 01:12:30;;;;;;;15.02;10.02;;;;;;;7.64;67.21;100578.53;5095457;28;20441;-77
2020/12/17 01:14:55;;;;;;;13.65;9.98;;;;;;;7.70;67.35;100587.69;5095500;28;20059;-77
2020/12/17 01:17:21;;;;;;;13.63;10.63;;;;;;;7.87;67.89;100616.78;5104033;28;20059;-76
2020/12/17 01:19:46;;;;;;;16.10;10.82;;;;;;;7.37;67.58;100534.44;5105047;28;20035;-76
2020/12/17 01:22:11;;;;;;;11.80;9.27;;;;;;;7.79;67.38;100606.09;5095782;28;20067;-76
2020/12/17 01:24:37;;;;;;;12.13;8.90;;;;;;;7.85;67.85;100610.84;5095573;28;20445;-77
2020/12/17 01:27:02;;;;;;;11.77;9.07;;;;;;;7.27;67.46;100509.94;5077543;28;20031;-78
2020/12/17 01:29:27;;;;;;;12.40;8.55;;;;;;;7.87;67.10;100613.31;5095437;28;20102;-76
2020/12/17 01:31:58;;;;;;;13.38;10.25;;;;;;;7.63;67.29;100564.56;5095301;28;20032;-76
2020/12/17 01:34:24;;;;;;;13.85;9.50;;;;;;;7.18;67.15;100498.44;5095215;28;20031;-76
2020/12/17 01:36:55;;;;;;;15.90;10.88;;;;;;;7.83;67.22;100606.66;5095382;28;20350;-76
2020/12/17 01:39:22;;;;;;;10.63;8.50;;;;;;;7.47;67.31;100539.75;5095050;28;20085;-77
2020/12/17 01:41:48;;;;;;;12.05;8.30;;;;;;;7.64;67.13;100573.28;5095384;28;20082;-77
2020/12/17 01:44:13;;;;;;;12.30;8.30;;;;;;;7.39;67.30;100545.66;5095060;28;20400;-77
2020/12/17 01:46:39;;;;;;;12.88;9.40;;;;;;;7.55;66.95;100566.19;5095295;28;20047;-77
2020/12/17 01:49:04;;;;;;;12.55;9.23;;;;;;;7.52;67.08;100569.09;5095033;28;20358;-76
2020/12/17 01:51:30;;;;;;;11.15;8.65;;;;;;;7.76;66.99;100613.44;5095021;28;20040;-77
2020/12/17 01:53:55;;;;;;;12.95;10.07;;;;;;;7.36;67.27;100545.91;5094826;28;20106;-77
2020/12/17 01:56:23;;;;;;;11.55;9.20;;;;;;;7.30;67.25;100528.06;5094789;28;20034;-77
2020/12/17 01:58:56;;;;;;;13.27;9.73;;;;;;;7.78;67.46;100607.06;5095120;28;20024;-76
2020/12/17 02:01:24;;;;;;;12.35;9.98;;;;;;;7.39;67.12;100544.81;5094760;28;20422;-76
2020/12/17 02:03:49;;;;;;;15.68;10.05;;;;;;;7.60;67.65;100574.50;5094879;28;20078;-77
2020/12/17 02:06:15;;;;;;;14.32;10.32;;;;;;;7.53;66.87;100552.34;5076791;28;20431;-77
2020/12/17 02:08:40;;;;;;;13.80;10.80;;;;;;;7.45;67.34;100534.63;5094744;28;20032;-76
2020/12/17 02:11:10;;;;;;;13.57;10.15;;;;;;;7.83;67.46;100596.16;5094831;28;20046;-76
2020/12/17 02:13:36;;;;;;;12.48;9.23;;;;;;;7.45;66.95;100534.63;5094504;28;20031;-77
2020/12/17 02:16:06;;;;;;;15.60;11.88;;;;;;;7.89;67.23;100598.25;5094732;28;20032;-76
2020/12/17 02:18:31;;;;;;;18.20;12.18;;;;;;;7.27;67.31;100505.50;5094566;28;20438;-77
2020/12/17 02:20:57;;;;;;;13.38;9.80;;;;;;;7.85;66.82;100602.09;5094672;28;20035;-76
2020/12/17 02:23:23;;;;;;;16.30;11.02;;;;;;;7.80;67.57;100586.75;5076564;28;20077;-77
2020/12/17 02:25:49;;;;;;;18.77;12.63;;;;;;;7.77;67.41;100581.75;5096629;28;20024;-77
2020/12/17 02:28:16;;;;;;;16.88;12.15;;;;;;;7.74;67.57;100583.81;5098736;28;20031;-77
2020/12/17 02:30:42;;;;;;;17.02;11.77;;;;;;;7.59;67.21;100550.03;5080883;28;20027;-76
2020/12/17 02:33:10;;;;;;;16.02;11.38;;;;;;;7.89;67.32;100595.63;5098559;28;20051;-76
2020/12/17 02:35:36;;;;;;;16.65;12.18;;;;;;;7.55;67.28;100540.75;5080903;28;20341;-76
2020/12/17 02:38:01;;;;;;;17.73;12.10;;;;;;;7.89;67.52;100598.25;5098520;28;20036;-76
2020/12/17 02:40:27;;;;;;;18.05;12.25;;;;;;;7.85;67.01;100594.22;5098584;28;20330;-76
2020/12/17 02:42:52;;;;;;;17.73;11.18;;;;;;;7.63;67.45;100548.78;5098577;28;20320;-77
2020/12/17 02:45:17;;;;;;;17.75;12.40;;;;;;;7.95;66.87;100597.69;5098409;28;20081;-76
2020/12/17 02:47:43;;;;;;;18.92;12.02;;;;;;;7.75;67.18;100567.09;5098490;28;20024;-76
2020/12/17 02:50:08;;;;;;;18.98;12.70;;;;;;;7.90;66.99;100599.91;5098601;28;20406;-76
2020/12/17 02:52:34;;;;;;;16.83;12.50;;;;;;;7.72;66.98;100577.88;5098284;28;20024;-76
2020/12/17 02:54:59;;;;;;;19.27;12.70;;;;;;;7.78;67.47;100595.72;5098352;28;20071;-76
2020/12/17 02:57:25;;;;;;;19.05;13.55;;;;;;;7.69;67.58;100584.22;5098259;28;20030;-76
2020/12/17 02:59:50;;;;;;;17.13;12.10;;;;;;;7.80;67.50;100606.94;5101440;28;20020;-78
2020/12/17 03:02:15;;;;;;;16.77;12.27;;;;;;;7.35;67.48;100544.25;5098995;28;20023;-76
2020/12/17 03:04:41;;;;;;;17.67;13.10;;;;;;;7.53;67.74;100568.97;5098304;28;20044;-76
2020/12/17 03:07:07;;;;;;;16.48;12.13;;;;;;;7.54;67.62;100575.88;5080257;28;20028;-76
2020/12/17 03:09:32;;;;;;;16.73;11.52;;;;;;;7.83;67.20;100604.03;5097948;28;20028;-76
2020/12/17 03:11:57;;;;;;;19.15;13.38;;;;;;;7.50;67.34;100545.56;5098012;28;20346;-77
2020/12/17 03:14:23;;;;;;;18.67;13.23;;;;;;;7.72;67.27;100577.88;5097788;28;20108;-76
2020/12/17 03:16:48;;;;;;;19.50;12.93;;;;;;;7.76;67.22;100587.16;5079993;28;20430;-76
2020/12/17 03:19:14;;;;;;;21.33;13.95;;;;;;;7.80;67.26;100594.63;5097903;28;20065;-76
2020/12/17 03:21:39;;;;;;;20.42;13.05;;;;;;;7.49;67.65;100541.28;5079944;28;20052;-76
2020/12/17 03:24:04;;;;;;;17.60;11.57;;;;;;;7.90;66.99;100598.09;5079877;28;20084;-76
2020/12/17 03:26:30;;;;;;;18.90;11.90;;;;;;;7.51;67.45;100536.72;5097599;28;20028;-76
2020/12/17 03:28:55;;;;;;;15.90;11.93;;;;;;;7.89;67.04;100595.63;5097941;28;20084;-76
2020/12/17 03:31:20;;;;;;;19.13;13.63;;;;;;;7.88;67.67;100602.66;5097665;28;20342;-77
2020/12/17 03:33:46;;;;;;;16.75;12.23;;;;;;;7.49;67.28;100541.28;5097490;28;20068;-76
2020/12/17 03:36:11;;;;;;;18.02;12.40;;;;;;;7.90;67.66;100605.16;5097537;28;20104;-76
2020/12/17 03:38:37;;;;;;;20.77;14.15;;;;;;;7.85;67.24;100592.44;5097486;28;20436;-76
2020/12/17 03:41:02;;;;;;;19.42;13.35;;;;;;;7.33;66.97;100507.59;5097462;28;20035;-77
2020/12/17 03:43:28;;;;;;;20.13;13.52;;;;;;;7.90;67.29;100605.16;5097622;28;20027;-76
2020/12/17 03:45:53;;;;;;;18.42;13.27;;;;;;;7.68;67.41;100572.03;5097420;28;20034;-76
2020/12/17 03:48:18;;;;;;;19.83;14.32;;;;;;;7.80;67.09;100586.75;5097446;28;20419;-77
2020/12/17 03:50:44;;;;;;;15.13;10.95;;;;;;;7.66;67.81;100566.09;5097473;28;20023;-75
2020/12/17 03:53:09;;;;;;;14.27;10.40;;;;;;;7.87;67.09;100606.25;5079359;28;20024;-76
2020/12/17 03:55:35;;;;;;;14.82;10.75;;;;;;;7.39;67.26;100529.06;5097149;28;20525;-76
2020/12/17 03:58:00;;;;;;;14.68;10.20;;;;;;;7.38;67.32;100525.59;5097090;28;20051;-76
2020/12/17 04:00:25;;;;;;;15.02;10.32;;;;;;;7.82;67.15;100602.38;5097055;28;20027;-76
2020/12/17 04:02:51;;;;;;;18.02;12.82;;;;;;;7.44;67.42;100546.09;5079288;28;20077;-76
2020/12/17 04:05:16;;;;;;;15.00;11.13;;;;;;;7.82;67.01;100605.00;5098424;28;20331;-78
2020/12/17 04:07:41;;;;;;;14.27;10.27;;;;;;;7.78;66.84;100608.88;5105008;28;20024;-76
2020/12/17 04:10:07;;;;;;;13.35;9.27;;;;;;;7.69;67.02;100593.91;5097099;28;20130;-76
2020/12/17 04:12:32;;;;;;;14.00;10.93;;;;;;;7.75;67.53;100599.47;5096729;28;20069;-76
2020/12/17 04:14:57;;;;;;;15.20;11.18;;;;;;;7.56;66.80;100576.56;5096968;28;20060;-76
2020/12/17 04:17:23;;;;;;;15.45;11.45;;;;;;;7.61;67.32;100578.81;5078900;28;20456;-76
2020/12/17 04:19:48;;;;;;;13.85;10.90;;;;;;;7.27;67.56;100526.53;5096789;28;20073;-76
2020/12/17 04:22:16;;;;;;;17.33;11.70;;;;;;;7.67;66.93;100574.81;5097171;28;20028;-76
2020/12/17 04:24:44;;;;;;;14.23;10.38;;;;;;;7.82;66.67;100603.22;5096810;28;20476;-76
2020/12/17 04:27:09;;;;;;;15.45;11.15;;;;;;;7.34;67.01;100529.44;5096589;28;20427;-76
2020/12/17 04:29:35;;;;;;;16.75;11.88;;;;;;;7.72;67.60;100593.63;5096403;28;20024;-76
2020/12/17 04:32:00;;;;;;;17.63;12.40;;;;;;;7.29;66.75;100519.34;5096406;28;20059;-76
2020/12/17 04:34:25;;;;;;;17.02;11.63;;;;;;;7.50;67.64;100555.25;5096318;28;20040;-76
2020/12/17 04:36:51;;;;;;;17.33;12.30;;;;;;;7.80;66.90;100605.13;5096585;28;20443;-77
2020/12/17 04:39:16;;;;;;;17.63;12.60;;;;;;;7.39;67.32;100537.75;5096484;28;20030;-76
2020/12/17 04:41:43;;;;;;;17.42;11.82;;;;;;;7.79;67.08;100611.38;5078377;28;20020;-76
2020/12/17 04:44:08;;;;;;;17.23;12.43;;;;;;;7.21;67.34;100523.59;5096285;28;20020;-77
2020/12/17 04:46:35;;;;;;;16.88;12.93;;;;;;;7.79;67.61;100616.63;5096161;28;20396;-78
2020/12/17 04:49:02;;;;;;;17.58;12.20;;;;;;;7.56;67.16;100589.72;5095657;28;20093;-76
2020/12/17 04:51:29;;;;;;;18.55;13.15;;;;;;;7.83;67.46;100611.94;5096160;28;20024;-78
2020/12/17 04:54:00;;;;;;;17.45;12.95;;;;;;;7.43;67.16;100552.31;5078120;28;20028;-76
2020/12/17 04:56:26;;;;;;;16.65;11.77;;;;;;;7.77;67.10;100618.56;5095840;28;20426;-76
2020/12/17 04:58:58;;;;;;;21.00;13.27;;;;;;;7.74;67.18;100618.00;5095874;28;20051;-77
2020/12/17 05:01:31;;;;;;;20.20;12.88;;;;;;;7.71;67.53;100620.88;5096009;28;20088;-78
2020/12/17 05:03:58;;;;;;;17.73;12.70;;;;;;;7.67;67.35;100627.38;5096098;28;20030;-77
2020/12/17 05:06:24;;;;;;;19.83;13.27;;;;;;;7.76;67.26;100631.84;5095873;28;20030;-77
2020/12/17 05:08:51;;;;;;;20.20;13.77;;;;;;;7.74;66.92;100633.75;5095828;28;20388;-77
2020/12/17 05:11:17;;;;;;;17.70;11.65;;;;;;;7.75;67.64;100631.00;5078353;28;20024;-77
2020/12/17 05:13:42;;;;;;;22.20;16.05;;;;;;;7.73;66.98;100637.34;5099830;28;20024;-77
2020/12/17 05:16:08;;;;;;;23.77;15.93;;;;;;;7.74;67.63;100650.38;5096018;28;20323;-77
2020/12/17 05:18:33;;;;;;;17.83;12.02;;;;;;;7.68;66.89;100623.78;5095798;28;20035;-79
2020/12/17 05:21:01;;;;;;;14.20;10.63;;;;;;;7.81;66.95;100650.66;5095840;28;20082;-77
2020/12/17 05:23:27;;;;;;;15.95;11.40;;;;;;;7.72;66.99;100614.66;5095593;28;20016;-76
2020/12/17 05:25:55;;;;;;;14.27;11.90;;;;;;;7.85;66.52;100637.13;5095620;28;20077;-77
2020/12/17 05:28:21;;;;;;;17.00;13.02;;;;;;;7.38;66.92;100564.16;5077466;28;20096;-77
2020/12/17 05:30:47;;;;;;;20.92;14.73;;;;;;;7.80;67.18;100639.31;5095506;28;20044;-76
2020/12/17 05:33:13;;;;;;;19.42;13.32;;;;;;;7.87;66.97;100639.63;5095226;28;20455;-78
2020/12/17 05:35:40;;;;;;;20.17;15.18;;;;;;;7.92;67.35;100637.41;5077355;28;20043;-77
2020/12/17 05:38:10;;;;;;;19.75;14.48;;;;;;;7.94;66.51;100638.94;5095554;28;20039;-77
2020/12/17 05:40:41;;;;;;;17.30;13.05;;;;;;;7.92;67.21;100632.16;5077437;28;20024;-77
2020/12/17 05:43:08;;;;;;;18.27;13.18;;;;;;;7.97;66.43;100637.84;5095214;28;20020;-77
2020/12/17 05:45:34;;;;;;;19.00;13.70;;;;;;;8.01;66.40;100639.25;5095110;28;20165;-79
2020/12/17 05:48:11;;;;;;;18.15;13.93;;;;;;;8.01;66.64;100630.53;5095436;28;20050;-79
2020/12/17 05:50:51;;;;;;;16.50;12.40;;;;;;;7.88;66.62;100621.06;5095212;28;20032;-76
2020/12/17 05:53:16;;;;;;;22.52;16.08;;;;;;;7.71;66.57;100600.69;5095030;28;20028;-77
2020/12/17 05:55:43;;;;;;;20.65;14.50;;;;;;;7.56;66.67;100571.31;5094811;28;20031;-77
2020/12/17 05:58:10;;;;;;;19.80;14.73;;;;;;;7.95;66.85;100639.78;5095200;28;20052;-77
2020/12/17 06:00:35;;;;;;;22.50;15.07;;;;;;;7.99;66.33;100635.91;5094273;28;20035;-77
2020/12/17 06:03:01;;;;;;;21.02;15.00;;;;;;;7.90;66.81;100634.09;5095013;28;20320;-76
2020/12/17 06:05:28;;;;;;;20.60;14.80;;;;;;;7.97;67.16;100646.56;5094751;28;20028;-77
2020/12/17 06:07:58;;;;;;;19.92;15.13;;;;;;;7.95;66.70;100637.16;5094991;28;20419;-80
2020/12/17 06:10:29;;;;;;;20.50;15.77;;;;;;;7.51;66.16;100577.94;5094949;28;20032;-78
2020/12/17 06:12:56;;;;;;;20.65;15.27;;;;;;;7.86;66.95;100635.31;5095188;28;20089;-85
2020/12/17 06:15:25;;;;;;;18.38;13.27;;;;;;;7.94;66.37;100648.63;5077149;28;20024;-79
2020/12/17 06:17:55;;;;;;;19.20;13.13;;;;;;;7.95;66.14;100652.94;5099695;28;20008;-79
2020/12/17 06:20:22;;;;;;;18.98;13.50;;;;;;;7.90;66.94;100657.75;5102794;28;20044;-76
2020/12/17 06:22:56;;;;;;;17.60;12.82;;;;;;;7.85;67.01;100647.63;5095704;28;20031;-80
2020/12/17 06:25:24;;;;;;;16.02;12.02;;;;;;;7.82;66.66;100644.44;5077320;28;20039;-77
2020/12/17 06:27:50;;;;;;;15.85;10.73;;;;;;;7.33;67.03;100577.69;5095013;28;20024;-76
2020/12/17 06:30:22;;;;;;;18.67;13.43;;;;;;;7.81;66.58;100640.97;5094821;28;20066;-77
2020/12/17 06:32:48;;;;;;;18.33;12.57;;;;;;;7.84;66.76;100648.59;5094720;28;20456;-76
2020/12/17 06:35:42;;;;;;;20.15;13.82;;;;;;;7.45;66.84;100589.81;5076664;28;20445;-77
2020/12/17 06:38:13;;;;;;;25.42;16.77;;;;;;;7.94;66.79;100652.09;5093021;28;20103;-76
2020/12/17 06:40:39;;;;;;;26.95;16.92;;;;;;;7.91;67.02;100655.00;5092021;28;20028;-77
2020/12/17 06:43:27;;;;;;;23.02;15.90;;;;;;;7.82;66.84;100647.91;5082519;28;20025;-76
2020/12/17 06:45:52;;;;;;;21.55;15.85;;;;;;;7.97;66.61;100669.41;5075857;28;20446;-77
2020/12/17 06:48:38;;;;;;;21.58;14.70;;;;;;;7.91;66.49;100657.63;5076431;28;20032;-79
2020/12/17 06:51:33;;;;;;;24.50;16.58;;;;;;;7.89;66.71;100669.25;5073934;28;20024;-85
2020/12/17 06:54:23;;;;;;;23.02;13.73;;;;;;;7.79;67.11;100668.38;5084242;28;20102;-86
2020/12/17 06:57:06;;;;;;;19.27;14.25;;;;;;;7.75;67.23;100677.50;5082336;28;20414;-84
2020/12/17 06:59:32;;;;;;;29.73;18.77;;;;;;;7.18;67.16;100584.25;5093825;28;20477;-80
2020/12/17 07:01:58;;;;;;;26.27;18.40;;;;;;;7.68;67.38;100660.56;5080295;28;20031;-84
2020/12/17 07:04:43;;;;;;;37.58;24.25;;;;;;;7.79;66.93;100684.97;5056299;28;20020;-87
2020/12/17 07:07:22;;;;;;;32.70;22.40;;;;;;;7.78;66.79;100682.47;5076777;28;20041;-81
2020/12/17 07:09:55;;;;;;;32.22;21.55;;;;;;;7.68;67.17;100666.66;5074391;28;20024;-86
2020/12/17 07:12:35;;;;;;;18.42;13.73;;;;;;;7.78;66.87;100687.75;5095493;28;20478;-86
2020/12/17 07:15:25;;;;;;;20.77;14.90;;;;;;;7.77;66.96;100684.28;5096035;28;20041;-84
2020/12/17 07:17:50;;;;;;;26.52;17.98;;;;;;;7.75;66.92;100690.63;5097732;28;20035;-78
2020/12/17 07:20:29;;;;;;;27.35;18.67;;;;;;;7.34;66.50;100627.47;5095121;28;20032;-85
2020/12/17 07:22:56;;;;;;;26.10;18.40;;;;;;;7.21;66.86;100603.22;5078166;28;20036;-77
2020/12/17 07:25:32;;;;;;;33.17;21.83;;;;;;;7.39;66.85;100631.50;5096532;28;20036;-77
2020/12/17 07:27:58;;;;;;;32.53;20.95;;;;;;;7.43;66.64;100638.16;5097365;28;20104;-77
2020/12/17 07:30:25;;;;;;;27.65;20.77;;;;;;;7.73;66.64;100710.97;5075203;28;20417;-77
2020/12/17 07:32:51;;;;;;;31.60;19.95;;;;;;;7.71;67.13;100692.69;5085587;28;20036;-76
2020/12/17 07:35:19;;;;;;;27.08;18.52;;;;;;;7.74;66.30;100692.44;5087353;28;20430;-79
2020/12/17 07:37:55;;;;;;;24.42;17.58;;;;;;;7.52;66.27;100651.38;5062017;28;20028;-77
2020/12/17 07:40:22;;;;;;;26.77;19.05;;;;;;;7.70;66.18;100674.44;5073605;28;20042;-76
2020/12/17 07:42:58;;;;;;;32.33;20.83;;;;;;;7.77;66.17;100684.28;5093011;28;20449;-80
2020/12/17 07:45:55;;;;;;;27.42;20.50;;;;;;;7.79;65.94;100700.75;5075854;28;20033;-85
2020/12/17 07:48:43;;;;;;;30.80;20.92;;;;;;;7.79;66.69;100694.66;5080785;28;20036;-76
2020/12/17 07:51:31;;;;;;;26.83;18.95;;;;;;;7.83;66.56;100693.44;5087231;28;20036;-80
2020/12/17 07:54:00;;;;;;;28.95;20.10;;;;;;;7.49;65.88;100635.03;5077092;28;20036;-77
2020/12/17 07:56:25;;;;;;;27.38;18.80;;;;;;;7.56;65.91;100651.97;5088304;28;20035;-76
2020/12/17 07:58:52;;;;;;;27.63;18.83;;;;;;;7.93;66.44;100703.03;5094242;28;20028;-76
2020/12/17 08:01:17;;;;;;;29.00;19.55;;;;;;;7.94;66.35;100698.59;5094091;28;20063;-77
2020/12/17 08:03:45;;;;;;;30.20;21.88;;;;;;;7.96;66.14;100707.19;5089559;28;20054;-77
2020/12/17 08:06:12;;;;;;;32.63;23.75;;;;;;;7.65;66.21;100645.91;5093142;28;20043;-79
2020/12/17 08:08:38;;;;;;;32.50;23.70;;;;;;;7.98;66.37;100705.25;5096685;28;20036;-77
2020/12/17 08:11:04;;;;;;;36.08;24.30;;;;;;;7.92;66.51;100697.91;5075536;28;20012;-76
2020/12/17 08:13:30;;;;;;;46.97;27.58;;;;;;;7.71;66.27;100642.75;5091739;28;20081;-79
2020/12/17 08:15:59;;;;;;;56.72;32.35;;;;;;;8.08;65.62;100700.84;5086332;28;20024;-78
2020/12/17 08:18:35;;;;;;;45.17;26.42;;;;;;;7.85;66.13;100659.94;5094391;28;20036;-77
2020/12/17 08:21:01;;;;;;;33.85;22.02;;;;;;;8.17;65.42;100700.06;5076574;28;20477;-76
2020/12/17 08:23:28;;;;;;;30.92;22.88;;;;;;;8.25;65.71;100707.31;5077527;28;20062;-81
2020/12/17 08:25:54;;;;;;;36.70;24.23;;;;;;;8.31;65.41;100692.78;5089864;28;20027;-86
2020/12/17 08:28:20;;;;;;;36.33;23.65;;;;;;;8.09;65.34;100659.59;5094420;28;20024;-80
2020/12/17 08:30:45;;;;;;;31.73;21.60;;;;;;;7.81;65.48;100603.34;5092575;28;20049;-82
2020/12/17 08:33:11;;;;;;;34.70;22.95;;;;;;;7.77;65.29;100586.19;5077481;28;20062;-83
2020/12/17 08:35:36;;;;;;;32.90;22.75;;;;;;;8.47;65.35;100706.28;5078333;28;20338;-85
2020/12/17 08:38:07;;;;;;;34.15;22.85;;;;;;;7.74;65.46;100589.06;5094682;28;20458;-80
2020/12/17 08:40:34;;;;;;;34.08;23.17;;;;;;;8.16;65.34;100645.78;5091264;28;20035;-84
2020/12/17 08:43:09;;;;;;;40.00;25.95;;;;;;;8.11;64.74;100607.69;5067942;28;20090;-84
2020/12/17 08:45:39;;;;;;;51.40;33.47;;;;;;;8.33;65.21;100630.31;5090895;28;20030;-79
2020/12/17 08:48:10;;;;;;;48.17;31.70;;;;;;;8.32;64.48;100626.88;5091039;28;20047;-83
2020/12/17 08:50:39;;;;;;;42.47;29.85;;;;;;;8.48;64.90;100645.59;5077128;28;20190;-79
2020/12/17 08:53:18;;;;;;;29.80;21.08;;;;;;;8.68;64.17;100678.03;5094876;28;20043;-77
2020/12/17 08:55:43;;;;;;;26.70;18.83;;;;;;;8.59;64.23;100665.69;5092282;28;20039;-76
2020/12/17 08:58:09;;;;;;;30.63;18.52;;;;;;;8.48;64.35;100642.16;5093384;28;20032;-79
2020/12/17 09:00:34;;;;;;;28.52;18.67;;;;;;;8.71;64.52;100677.75;5075779;28;20034;-83
2020/12/17 09:02:59;;;;;;;28.25;19.52;;;;;;;8.75;64.21;100676.50;5076248;28;20438;-79
2020/12/17 09:05:25;;;;;;;30.02;21.05;;;;;;;8.29;64.06;100587.66;5060447;28;20032;-80
2020/12/17 09:07:53;;;;;;;26.55;18.90;;;;;;;8.77;63.81;100661.41;5094021;28;20039;-80
2020/12/17 09:10:19;;;;;;;38.50;17.95;;;;;;;7.91;63.82;100544.56;5094689;28;20115;-82
2020/12/17 09:12:44;;;;;;;18.70;13.93;;;;;;;8.15;64.47;100585.41;5076742;28;20106;-85
2020/12/17 09:15:13;;;;;;;24.42;15.95;;;;;;;7.80;64.01;100541.22;5092462;28;20032;-82
2020/12/17 09:17:39;;;;;;;20.25;14.20;;;;;;;7.78;63.90;100530.84;5070755;28;20415;-79
2020/12/17 09:20:16;;;;;;;16.73;12.10;;;;;;;8.56;63.76;100684.41;5090247;28;20379;-82
2020/12/17 09:22:41;;;;;;;15.70;12.10;;;;;;;8.42;63.69;100637.44;5079383;28;20059;-83
2020/12/17 09:25:07;;;;;;;17.50;11.98;;;;;;;7.91;63.90;100551.63;5093921;28;20103;-82
2020/12/17 09:27:37;;;;;;;18.55;13.68;;;;;;;8.38;64.00;100623.72;5093857;28;20414;-76
2020/12/17 09:30:04;;;;;;;19.10;12.02;;;;;;;8.26;64.21;100622.16;5094613;28;20035;-86
2020/12/17 09:32:30;;;;;;;16.42;11.23;;;;;;;7.87;64.10;100579.16;5075968;28;20040;-81
2020/12/17 09:35:13;;;;;;;15.95;9.40;;;;;;;7.98;64.38;100579.03;5071260;28;20035;-80
2020/12/17 09:37:40;;;;;;;17.05;11.35;;;;;;;8.53;63.86;100655.72;5092012;28;20031;-84
2020/12/17 09:40:09;;;;;;;19.58;13.25;;;;;;;8.43;63.62;100618.03;5076573;28;20422;-78
2020/12/17 09:42:35;;;;;;;15.77;10.95;;;;;;;7.84;63.42;100522.41;5094361;28;20028;-78
2020/12/17 09:45:20;;;;;;;11.65;8.82;;;;;;;8.08;63.42;100553.56;5089330;28;20024;-84
2020/12/17 09:47:45;;;;;;;19.60;12.10;;;;;;;8.06;63.46;100568.66;5066038;28;20105;-84
2020/12/17 09:50:17;;;;;;;18.35;12.48;;;;;;;8.49;63.21;100618.31;5066595;28;20032;-82
2020/12/17 09:52:43;;;;;;;14.32;11.52;;;;;;;8.68;63.32;100653.50;5074284;28;20036;-82
2020/12/17 09:55:08;;;;;;;17.45;11.77;;;;;;;8.69;63.34;100634.09;5077106;28;20442;-84
2020/12/17 09:57:36;;;;;;;16.45;10.27;;;;;;;8.74;63.00;100635.34;5083787;28;20036;-80
2020/12/17 10:00:04;;;;;;;20.42;13.10;;;;;;;8.68;63.60;100637.72;5094737;28;20032;-80
2020/12/17 10:02:29;;;;;;;13.68;10.40;;;;;;;8.68;63.67;100645.59;5087815;28;20496;-80
2020/12/17 10:04:55;;;;;;;16.35;9.98;;;;;;;8.56;63.80;100616.78;5093898;28;20026;-80
2020/12/17 10:07:20;;;;;;;16.73;11.23;;;;;;;8.69;63.44;100631.47;5075737;28;20120;-83
2020/12/17 10:09:46;;;;;;;15.93;11.00;;;;;;;8.73;63.58;100649.50;5073932;28;20680;-83
2020/12/17 10:12:11;;;;;;;16.33;11.57;;;;;;;8.28;63.38;100578.13;5086332;28;20024;-82
2020/12/17 10:14:36;;;;;;;10.75;8.13;;;;;;;8.47;63.20;100607.09;5075074;28;20032;-82
2020/12/17 10:17:02;;;;;;;12.27;8.68;;;;;;;8.44;63.47;100586.31;5094058;28;20024;-83
2020/12/17 10:19:28;;;;;;;12.93;9.60;;;;;;;8.34;63.16;100567.06;5093655;28;20039;-83
2020/12/17 10:21:55;;;;;;;11.77;8.10;;;;;;;8.76;63.16;100643.09;5082505;28;20088;-77
2020/12/17 10:24:20;;;;;;;9.75;7.32;;;;;;;8.82;63.28;100626.75;5092807;28;20101;-80
2020/12/17 10:26:46;;;;;;;13.27;9.43;;;;;;;8.84;62.94;100617.75;5084119;28;20078;-78
2020/12/17 10:29:11;;;;;;;10.13;7.93;;;;;;;8.34;63.03;100530.22;5074169;28;20086;-84
2020/12/17 10:31:37;;;;;;;16.80;11.20;;;;;;;8.89;62.61;100628.69;5090634;28;20020;-83
2020/12/17 10:34:02;;;;;;;18.27;12.38;;;;;;;8.29;62.99;100524.53;5074980;28;20028;-82
2020/12/17 10:36:27;;;;;;;16.10;10.77;;;;;;;8.16;62.99;100516.88;5081755;28;20028;-82
2020/12/17 10:38:53;;;;;;;16.75;11.45;;;;;;;8.33;63.14;100535.59;5088000;28;20051;-77
2020/12/17 10:41:28;;;;;;;18.50;12.40;;;;;;;8.72;63.03;100599.59;5085453;28;20029;-75
2020/12/17 10:43:54;;;;;;;23.17;14.15;;;;;;;8.84;62.83;100625.63;5074033;28;20024;-77
2020/12/17 10:46:20;;;;;;;12.85;9.73;;;;;;;8.47;62.62;100554.47;5075020;28;20036;-76
2020/12/17 10:48:46;;;;;;;12.70;9.77;;;;;;;8.71;63.11;100596.13;5077529;28;20611;-76
2020/12/17 10:51:16;;;;;;;15.27;10.80;;;;;;;8.70;62.72;100605.00;5078025;28;20020;-77
2020/12/17 10:53:42;;;;;;;14.15;10.10;;;;;;;8.43;63.25;100566.25;5077735;28;20031;-80
2020/12/17 10:56:08;;;;;;;14.80;10.68;;;;;;;8.36;62.79;100556.41;5060182;28;20024;-79
2020/12/17 10:58:34;;;;;;;17.17;11.35;;;;;;;8.58;63.15;100595.59;5077676;28;20028;-79
2020/12/17 11:01:00;;;;;;;16.88;10.55;;;;;;;8.06;62.99;100531.84;5077802;28;20415;-82
2020/12/17 11:03:26;;;;;;;14.52;10.73;;;;;;;8.18;63.40;100536.03;5077430;28;20028;-80
2020/12/17 11:05:53;;;;;;;8.88;7.40;;;;;;;8.48;62.97;100576.34;5083162;28;20030;-79
2020/12/17 11:08:18;;;;;;;8.70;6.53;;;;;;;8.24;62.83;100526.75;5078310;28;20024;-80
2020/12/17 11:10:44;;;;;;;10.70;7.13;;;;;;;8.16;62.69;100508.16;5091190;28;20025;-79
2020/12/17 11:13:09;;;;;;;9.57;7.13;;;;;;;8.46;63.24;100546.72;5095036;28;20073;-81
2020/12/17 11:15:34;;;;;;;11.73;8.50;;;;;;;8.21;62.88;100527.84;5097218;28;20180;-77
2020/12/17 11:18:00;;;;;;;9.15;6.05;;;;;;;8.78;62.89;100596.41;5096740;28;20039;-77
2020/12/17 11:20:25;;;;;;;11.02;8.02;;;;;;;8.67;62.46;100575.50;5096999;28;20059;-78
2020/12/17 11:22:50;;;;;;;11.65;8.65;;;;;;;8.27;63.00;100527.28;5078861;28;20038;-76